Time;durP1;ratioP1;P1;durP2;ratioP2;P2;SDS_P1;SDS_P2;PMS_P1;PMS_P2;Temp;Humidity;BMP_temperature;BMP_pressure;BME280_temperature;BME280_humidity;BME280_pressure;Samples;Min_cycle;Max_cycle;Signal;HPM_P1;HPM_P2
2022/06/22 00:01:07;;;;;;;0.88;0.88;;;;;;;15.56;67.29;99332.31;4956114;29;20486;-70
2022/06/22 00:03:36;;;;;;;1.00;1.00;;;;;;;15.59;67.15;99342.53;4955742;29;20110;-69
2022/06/22 00:06:05;;;;;;;0.70;0.70;;;;;;;15.63;67.01;99336.41;4955508;28;20043;-70
2022/06/22 00:08:46;;;;;;;1.05;1.05;;;;;;;15.67;66.92;99350.88;4955412;28;20047;-69
2022/06/22 00:11:16;;;;;;;1.08;0.85;;;;;;;15.69;66.29;99343.94;4955663;28;20047;-70
2022/06/22 00:13:58;;;;;;;0.65;0.60;;;;;;;15.70;66.29;99345.66;4955648;29;20043;-69
2022/06/22 00:16:40;;;;;;;0.85;0.85;;;;;;;15.68;65.96;99337.13;4956015;28;20047;-70
2022/06/22 00:19:18;;;;;;;0.75;0.75;;;;;;;15.56;66.01;99322.03;4956066;29;20043;-70
2022/06/22 00:21:50;;;;;;;0.70;0.70;;;;;;;15.54;66.07;99339.22;4955588;28;20051;-70
2022/06/22 00:24:39;;;;;;;5.57;0.93;;;;;;;15.54;66.22;99335.81;4955544;28;20130;-70
2022/06/22 00:27:20;;;;;;;0.70;0.70;;;;;;;15.55;66.01;99335.75;4955936;28;20042;-70
2022/06/22 00:30:08;;;;;;;0.57;0.57;;;;;;;15.48;66.11;99321.38;4955500;29;20051;-70
2022/06/22 00:32:39;;;;;;;0.88;0.88;;;;;;;15.36;66.42;99308.78;4955476;28;20048;-70
2022/06/22 00:35:29;;;;;;;1.13;1.02;;;;;;;15.39;66.00;99324.16;4955502;28;20043;-69
2022/06/22 00:38:30;;;;;;;0.70;0.70;;;;;;;15.39;66.25;99319.84;4955481;29;20142;-69
2022/06/22 00:41:03;;;;;;;1.38;1.23;;;;;;;15.29;66.48;99328.69;4896277;29;20040;-70
2022/06/22 00:43:36;;;;;;;0.50;0.50;;;;;;;15.23;66.63;99328.00;4945021;29;20054;-70
2022/06/22 00:46:14;;;;;;;0.63;0.63;;;;;;;15.25;66.67;99311.66;4955427;28;20126;-70
2022/06/22 00:48:48;;;;;;;0.80;0.80;;;;;;;15.31;66.21;99315.78;4955347;29;20043;-70
2022/06/22 00:51:21;;;;;;;0.50;0.50;;;;;;;15.20;66.28;99322.94;4955347;28;20066;-70
2022/06/22 00:54:04;;;;;;;0.50;0.50;;;;;;;15.19;66.51;99310.94;4955276;29;20083;-70
2022/06/22 00:56:50;;;;;;;0.70;0.70;;;;;;;15.21;66.04;99309.22;4955270;29;20051;-70
2022/06/22 00:59:24;;;;;;;0.70;0.70;;;;;;;15.24;66.59;99311.69;4955546;28;20454;-70
2022/06/22 01:01:58;;;;;;;0.70;0.70;;;;;;;15.23;66.13;99299.72;4955220;28;20055;-70
2022/06/22 01:04:41;;;;;;;0.50;0.50;;;;;;;15.24;66.47;99301.41;4955403;29;20070;-69
2022/06/22 01:07:19;;;;;;;0.70;0.70;;;;;;;15.26;66.59;99303.03;4969804;28;20405;-70
2022/06/22 01:09:56;;;;;;;0.60;0.60;;;;;;;15.29;66.43;99302.13;4955496;28;20075;-69
2022/06/22 01:12:32;;;;;;;0.70;0.70;;;;;;;15.27;66.23;99296.19;4955480;28;20043;-69
2022/06/22 01:15:11;;;;;;;0.90;0.88;;;;;;;15.04;66.73;99293.34;4955093;28;20584;-70
2022/06/22 01:17:50;;;;;;;1.92;1.25;;;;;;;15.05;66.78;99308.72;4955101;29;20050;-69
2022/06/22 01:20:28;;;;;;;0.52;0.52;;;;;;;15.13;66.79;99298.25;4957729;28;20536;-69
2022/06/22 01:23:23;;;;;;;1.00;0.90;;;;;;;15.04;66.76;99294.22;4958694;28;20047;-69
2022/06/22 01:25:56;;;;;;;0.88;0.88;;;;;;;15.03;66.79;99297.66;4958526;28;20051;-70
2022/06/22 01:28:27;;;;;;;0.68;0.68;;;;;;;14.96;67.05;99297.84;4958672;28;20070;-70
2022/06/22 01:31:03;;;;;;;0.98;0.88;;;;;;;14.87;66.98;99273.22;4958827;29;20044;-70
2022/06/22 01:33:34;;;;;;;0.60;0.60;;;;;;;15.04;66.88;99290.78;4958487;28;20089;-69
2022/06/22 01:36:22;;;;;;;0.80;0.80;;;;;;;14.97;66.87;99281.53;4958333;28;20048;-69
2022/06/22 01:38:52;;;;;;;0.57;0.57;;;;;;;14.70;67.34;99295.91;4958406;29;20089;-70
2022/06/22 01:41:42;;;;;;;0.70;0.70;;;;;;;14.42;68.49;99299.97;4958337;28;20061;-70
2022/06/22 01:44:41;;;;;;;0.60;0.60;;;;;;;14.27;69.59;99296.00;4958180;29;20055;-70
2022/06/22 01:47:24;;;;;;;0.60;0.60;;;;;;;14.38;69.45;99299.19;4958270;28;20102;-69
2022/06/22 01:50:00;;;;;;;0.60;0.60;;;;;;;14.48;69.51;99300.69;4958484;28;20405;-70
2022/06/22 01:52:43;;;;;;;0.70;0.70;;;;;;;14.61;69.45;99299.50;4958332;28;20512;-70
2022/06/22 01:55:25;;;;;;;1.58;0.80;;;;;;;14.72;68.95;99309.53;4958093;28;20151;-70
2022/06/22 01:58:01;;;;;;;0.70;0.70;;;;;;;14.81;68.50;99313.59;4958072;29;20078;-69
2022/06/22 02:00:32;;;;;;;0.60;0.60;;;;;;;14.84;67.65;99319.53;4958314;29;20043;-70
2022/06/22 02:03:16;;;;;;;0.60;0.60;;;;;;;14.85;67.81;99320.38;4958294;28;20126;-70
2022/06/22 02:05:53;;;;;;;0.50;0.50;;;;;;;14.85;67.61;99322.97;4957814;28;20054;-70
2022/06/22 02:08:26;;;;;;;0.52;0.52;;;;;;;14.84;67.88;99328.97;4957833;28;20066;-69
2022/06/22 02:11:02;;;;;;;1.13;0.98;;;;;;;14.82;67.69;99330.72;4957842;28;20075;-70
2022/06/22 02:13:41;;;;;;;0.82;0.82;;;;;;;14.70;68.09;99314.72;4958080;28;20134;-70
2022/06/22 02:16:17;;;;;;;0.73;0.73;;;;;;;14.67;67.50;99319.94;4957665;28;20106;-70
2022/06/22 02:18:52;;;;;;;0.57;0.57;;;;;;;14.63;67.56;99323.47;4957686;29;20043;-69
2022/06/22 02:21:33;;;;;;;0.50;0.50;;;;;;;14.58;67.86;99315.00;4958249;28;20481;-70
2022/06/22 02:24:07;;;;;;;0.77;0.77;;;;;;;14.48;67.83;99323.78;4957943;28;20043;-69
2022/06/22 02:26:44;;;;;;;1.42;1.30;;;;;;;14.43;68.59;99327.34;4957572;28;20551;-69
2022/06/22 02:29:14;;;;;;;0.75;0.75;;;;;;;14.27;68.51;99326.81;4957551;28;20055;-69
2022/06/22 02:31:46;;;;;;;1.38;1.27;;;;;;;14.20;68.71;99340.66;4957483;28;20505;-69
2022/06/22 02:34:19;;;;;;;0.68;0.68;;;;;;;14.13;69.13;99351.06;4957434;29;20118;-69
2022/06/22 02:36:51;;;;;;;0.50;0.50;;;;;;;14.08;69.07;99351.16;4957353;28;20117;-70
2022/06/22 02:39:23;;;;;;;0.60;0.60;;;;;;;13.96;69.41;99341.97;4957357;28;20054;-69
2022/06/22 02:44:37;;;;;;;0.40;0.40;;;;;;;13.75;69.24;99356.94;4957539;28;20461;-69
2022/06/22 02:47:21;;;;;;;0.43;0.43;;;;;;;13.50;69.95;99360.81;4957242;28;20504;-69
2022/06/22 02:49:56;;;;;;;1.13;1.02;;;;;;;13.32;70.17;99355.13;4957179;28;20103;-69
2022/06/22 02:52:32;;;;;;;1.13;0.95;;;;;;;13.28;70.70;99366.31;4957131;29;20516;-69
2022/06/22 02:55:02;;;;;;;0.70;0.70;;;;;;;13.20;71.23;99373.28;4957072;28;20039;-69
2022/06/22 02:57:37;;;;;;;;;;;;;;;13.08;71.47;99383.72;4957122;28;20528;-69
2022/06/22 03:00:08;;;;;;;0.90;0.90;;;;;;;12.99;71.69;99383.84;4956873;29;20403;-69
2022/06/22 03:02:41;;;;;;;1.23;1.10;;;;;;;12.92;72.19;99392.47;4956785;28;20066;-69
2022/06/22 03:05:12;;;;;;;0.77;0.77;;;;;;;12.96;72.29;99383.88;4957295;29;20047;-69
2022/06/22 03:07:54;;;;;;;0.57;0.57;;;;;;;12.90;72.56;99371.19;4956401;29;20055;-69
2022/06/22 03:10:42;;;;;;;0.88;0.85;;;;;;;12.89;73.00;99369.47;4956787;29;20047;-69
2022/06/22 03:13:19;;;;;;;0.60;0.60;;;;;;;12.97;73.39;99359.97;4956741;28;20079;-69
2022/06/22 03:15:48;;;;;;;1.00;1.00;;;;;;;12.94;73.30;99360.00;4956622;28;20747;-69
2022/06/22 03:18:24;;;;;;;1.77;1.23;;;;;;;13.00;73.20;99344.56;4956422;29;20048;-69
2022/06/22 03:20:57;;;;;;;0.63;0.63;;;;;;;13.25;73.12;99340.72;4956517;28;20134;-69
2022/06/22 03:23:44;;;;;;;0.68;0.68;;;;;;;13.44;72.31;99336.97;4955546;29;20059;-69
2022/06/22 03:26:18;;;;;;;3.28;1.85;;;;;;;13.40;72.06;99330.22;4956405;28;20106;-69
2022/06/22 03:28:51;;;;;;;0.93;0.82;;;;;;;13.44;72.29;99316.47;4956350;29;20058;-69
2022/06/22 03:31:25;;;;;;;0.80;0.80;;;;;;;13.71;72.19;99321.94;4956389;28;20051;-70
2022/06/22 03:34:00;;;;;;;0.63;0.63;;;;;;;13.96;71.93;99320.63;4956413;28;20125;-70
2022/06/22 03:36:59;;;;;;;0.95;0.90;;;;;;;14.14;71.08;99322.78;4956302;28;20071;-69
2022/06/22 03:39:35;;;;;;;1.90;0.90;;;;;;;14.33;71.08;99326.69;4956107;29;20044;-69
2022/06/22 03:42:09;;;;;;;1.38;1.27;;;;;;;14.47;70.23;99327.22;4955539;28;20138;-69
2022/06/22 03:44:46;;;;;;;1.50;0.95;;;;;;;14.61;69.26;99330.34;4956139;28;20556;-68
2022/06/22 03:47:19;;;;;;;1.15;1.10;;;;;;;14.68;69.26;99339.59;4956011;28;20543;-70
2022/06/22 03:49:58;;;;;;;0.70;0.70;;;;;;;14.70;68.61;99330.16;4956318;28;20130;-70
2022/06/22 03:52:33;;;;;;;1.38;0.68;;;;;;;14.85;68.42;99340.94;4955951;28;20082;-70
2022/06/22 03:55:07;;;;;;;0.65;0.65;;;;;;;14.90;68.13;99355.34;4955940;28;20047;-70
2022/06/22 03:57:52;;;;;;;1.15;1.05;;;;;;;14.61;68.47;99353.44;4956133;29;20130;-70
2022/06/22 04:00:49;;;;;;;0.80;0.70;;;;;;;14.36;69.26;99346.31;4955888;29;20051;-69
2022/06/22 04:03:20;;;;;;;0.80;0.80;;;;;;;14.25;69.83;99361.94;4955899;28;20534;-69
2022/06/22 04:05:55;;;;;;;0.70;0.70;;;;;;;14.34;70.78;99364.34;4956019;29;20429;-70
2022/06/22 04:08:31;;;;;;;1.10;1.00;;;;;;;14.55;70.20;99369.00;4938884;29;20408;-70
2022/06/22 04:11:05;;;;;;;2.55;1.33;;;;;;;14.78;69.92;99371.91;4955615;28;20051;-70
2022/06/22 04:13:41;;;;;;;1.05;0.95;;;;;;;14.98;69.40;99380.88;4955933;28;20055;-70
2022/06/22 04:16:14;;;;;;;0.80;0.80;;;;;;;15.15;68.75;99368.47;4956101;28;20129;-70
2022/06/22 04:18:49;;;;;;;0.70;0.70;;;;;;;15.29;67.64;99374.13;4956481;29;20051;-70
2022/06/22 04:21:24;;;;;;;0.60;0.60;;;;;;;15.36;67.34;99375.66;4955924;28;20079;-70
2022/06/22 04:23:57;;;;;;;0.73;0.70;;;;;;;15.41;66.69;99389.25;4955893;28;20043;-70
2022/06/22 04:26:35;;;;;;;0.65;0.65;;;;;;;15.47;66.49;99394.28;4970231;28;20111;-70
2022/06/22 04:29:12;;;;;;;0.52;0.52;;;;;;;15.51;66.20;99390.75;4955824;29;20134;-70
2022/06/22 04:31:53;;;;;;;4.88;1.45;;;;;;;15.57;66.68;99395.75;4955852;28;20479;-69
2022/06/22 04:34:32;;;;;;;1.02;1.00;;;;;;;15.62;66.29;99406.75;4955490;28;20078;-69
2022/06/22 04:37:08;;;;;;;0.90;0.90;;;;;;;15.68;65.61;99409.16;4955475;28;20054;-70
2022/06/22 04:39:47;;;;;;;0.85;0.75;;;;;;;15.66;65.98;99405.81;4955386;28;20054;-70
2022/06/22 04:42:25;;;;;;;0.90;0.90;;;;;;;15.72;65.60;99412.50;4955620;28;20451;-70
2022/06/22 04:45:00;;;;;;;1.13;1.02;;;;;;;15.74;65.49;99416.72;4955446;28;20059;-70
2022/06/22 04:47:32;;;;;;;0.47;0.47;;;;;;;15.83;65.55;99403.63;4955383;29;20150;-70
2022/06/22 04:50:07;;;;;;;1.05;0.85;;;;;;;15.75;65.72;99379.81;4955230;29;20094;-70
2022/06/22 04:52:52;;;;;;;0.70;0.70;;;;;;;15.83;65.44;99398.50;4955163;28;20057;-69
2022/06/22 04:55:38;;;;;;;0.93;0.82;;;;;;;15.85;65.20;99401.88;4959216;28;20054;-70
2022/06/22 04:58:42;;;;;;;1.05;1.00;;;;;;;15.90;65.45;99399.16;4959127;29;20122;-69
2022/06/22 05:01:17;;;;;;;1.20;1.10;;;;;;;15.92;65.55;99382.78;4959103;29;20054;-69
2022/06/22 05:03:47;;;;;;;0.70;0.65;;;;;;;15.96;65.28;99392.09;4959361;28;20097;-70
2022/06/22 05:06:21;;;;;;;0.88;0.85;;;;;;;15.99;65.24;99397.19;4958674;28;20043;-70
2022/06/22 05:09:00;;;;;;;1.10;1.00;;;;;;;16.04;65.54;99391.91;4959297;28;20047;-70
2022/06/22 05:11:41;;;;;;;0.80;0.80;;;;;;;16.01;65.57;99395.41;4958773;28;20047;-69
2022/06/22 05:14:15;;;;;;;0.70;0.70;;;;;;;15.98;65.49;99387.75;4959196;28;20047;-69
2022/06/22 05:16:54;;;;;;;1.42;0.80;;;;;;;16.09;65.96;99396.06;4959124;28;20146;-69
2022/06/22 05:19:25;;;;;;;0.77;0.77;;;;;;;16.25;65.93;99393.03;4959048;28;20043;-69
2022/06/22 05:21:59;;;;;;;0.57;0.57;;;;;;;16.39;66.13;99398.63;4958691;29;20055;-68
2022/06/22 05:24:33;;;;;;;1.75;1.27;;;;;;;16.47;65.34;99412.13;4958756;29;20098;-69
2022/06/22 05:27:08;;;;;;;0.55;0.55;;;;;;;16.56;64.13;99417.06;4958829;29;20134;-69
2022/06/22 05:29:40;;;;;;;0.60;0.60;;;;;;;16.60;63.75;99398.06;4958481;28;20102;-69
2022/06/22 05:32:15;;;;;;;0.90;0.90;;;;;;;16.63;63.68;99387.63;4958747;29;20055;-69
2022/06/22 05:34:48;;;;;;;1.00;0.90;;;;;;;16.61;63.10;99379.97;4958501;29;20055;-69
2022/06/22 05:37:29;;;;;;;1.77;1.63;;;;;;;16.83;63.21;99411.09;4958424;28;20106;-69
2022/06/22 05:40:03;;;;;;;2.95;1.55;;;;;;;17.01;62.92;99409.69;4958370;29;20059;-69
2022/06/22 05:42:34;;;;;;;0.70;0.70;;;;;;;17.17;62.83;99409.16;4958566;28;20051;-69
2022/06/22 05:45:14;;;;;;;1.08;0.98;;;;;;;17.36;62.47;99407.69;4958227;28;20069;-68
2022/06/22 05:47:45;;;;;;;1.08;0.93;;;;;;;17.49;61.81;99417.59;4958168;28;20243;-69
2022/06/22 05:50:27;;;;;;;1.80;1.70;;;;;;;17.62;61.34;99422.31;4958794;28;20049;-69
2022/06/22 05:53:01;;;;;;;1.13;1.05;;;;;;;17.70;60.95;99417.75;4958012;28;20047;-69
2022/06/22 05:55:46;;;;;;;1.75;1.40;;;;;;;17.86;60.76;99436.16;4958174;28;20508;-69
2022/06/22 05:58:24;;;;;;;1.48;1.13;;;;;;;18.06;60.43;99436.31;4958084;29;20078;-68
2022/06/22 06:01:06;;;;;;;1.30;1.20;;;;;;;18.17;60.04;99421.28;4958027;29;20098;-69
2022/06/22 06:03:43;;;;;;;0.95;0.88;;;;;;;18.23;59.78;99408.16;4957956;28;20560;-68
2022/06/22 06:06:22;;;;;;;1.15;1.05;;;;;;;18.29;59.81;99402.75;4957441;28;20047;-69
2022/06/22 06:09:02;;;;;;;1.20;1.03;;;;;;;18.45;59.93;99413.38;4919702;29;20058;-69
2022/06/22 06:11:40;;;;;;;0.60;0.60;;;;;;;18.63;59.42;99413.56;4919596;29;20051;-68
2022/06/22 06:14:14;;;;;;;0.60;0.60;;;;;;;18.66;58.32;99399.69;4919897;29;20062;-69
2022/06/22 06:16:46;;;;;;;0.75;0.75;;;;;;;18.89;58.00;99394.44;4919597;29;20052;-68
2022/06/22 06:19:21;;;;;;;0.60;0.60;;;;;;;19.01;57.43;99387.94;4919548;29;20056;-69
2022/06/22 06:22:04;;;;;;;0.75;0.75;;;;;;;19.18;57.33;99406.22;4919522;29;20059;-69
2022/06/22 06:27:38;;;;;;;1.63;1.25;;;;;;;19.50;56.79;99403.22;4919521;29;20514;-69
2022/06/22 06:30:20;;;;;;;1.30;1.05;;;;;;;19.67;56.18;99399.94;4919656;29;20048;-69
2022/06/22 06:32:55;;;;;;;1.40;1.30;;;;;;;19.81;56.13;99398.44;4919218;29;20406;-70
2022/06/22 06:35:32;;;;;;;0.80;0.52;;;;;;;20.11;55.81;99408.41;4917932;29;20059;-72
2022/06/22 06:38:12;;;;;;;0.60;0.60;;;;;;;20.02;54.75;99392.34;4918783;29;20048;-70
2022/06/22 06:40:45;;;;;;;0.80;0.70;;;;;;;20.18;54.12;99394.25;4919159;29;20517;-69
2022/06/22 06:43:30;;;;;;;0.70;0.70;;;;;;;20.28;53.49;99404.16;4919152;29;20052;-68
2022/06/22 06:46:01;;;;;;;0.75;0.70;;;;;;;20.43;53.17;99402.66;4918937;29;20048;-69
2022/06/22 06:48:34;;;;;;;0.77;0.77;;;;;;;20.44;53.33;99396.56;4918947;29;20048;-70
2022/06/22 06:51:05;;;;;;;0.70;0.70;;;;;;;20.38;53.36;99405.44;4918930;29;20052;-69
2022/06/22 06:53:41;;;;;;;0.60;0.60;;;;;;;20.54;53.31;99410.75;4919151;29;20090;-69
2022/06/22 06:56:17;;;;;;;0.80;0.80;;;;;;;20.72;52.57;99399.56;4918892;29;20064;-69
2022/06/22 06:58:51;;;;;;;0.70;0.70;;;;;;;20.93;52.33;99393.38;4918788;29;20142;-70
2022/06/22 07:01:23;;;;;;;1.17;1.08;;;;;;;21.04;51.54;99392.88;4918840;29;20052;-69
2022/06/22 07:03:58;;;;;;;0.80;0.80;;;;;;;21.20;51.18;99391.25;4918691;29;20056;-69
2022/06/22 07:06:28;;;;;;;0.65;0.65;;;;;;;21.30;50.62;99403.72;4922043;29;20052;-70
2022/06/22 07:09:02;;;;;;;0.60;0.60;;;;;;;21.48;50.47;99401.94;4956773;29;20511;-70
2022/06/22 07:11:36;;;;;;;0.60;0.60;;;;;;;21.55;50.17;99397.28;4956341;29;20417;-69
2022/06/22 07:14:14;;;;;;;0.90;0.60;;;;;;;21.62;49.82;99389.09;4956641;28;20058;-69
2022/06/22 07:16:53;;;;;;;0.73;0.68;;;;;;;21.76;48.78;99376.25;4955564;28;20055;-68
2022/06/22 07:19:24;;;;;;;;;;;;;;;21.83;48.48;99387.19;4956936;29;20047;-70
2022/06/22 07:21:58;;;;;;;0.63;0.63;;;;;;;22.03;49.48;99389.63;4956044;29;20009;-70
2022/06/22 07:24:30;;;;;;;0.68;0.68;;;;;;;22.11;48.74;99379.69;4956111;29;20054;-70
2022/06/22 07:27:05;;;;;;;0.68;0.68;;;;;;;22.22;48.83;99379.94;4955772;29;20043;-70
2022/06/22 07:29:42;;;;;;;0.63;0.63;;;;;;;22.32;48.76;99381.13;4956301;29;20086;-68
2022/06/22 07:32:18;;;;;;;0.50;0.50;;;;;;;22.47;48.02;99369.91;4956351;29;20044;-66
2022/06/22 07:34:56;;;;;;;0.60;0.60;;;;;;;22.56;47.53;99369.41;4956168;29;20515;-66
2022/06/22 07:37:29;;;;;;;0.90;0.77;;;;;;;22.79;47.23;99365.59;4959666;28;20046;-67
2022/06/22 07:40:07;;;;;;;0.60;0.60;;;;;;;22.92;47.19;99365.72;4975793;28;20054;-67
2022/06/22 07:42:36;;;;;;;0.60;0.60;;;;;;;22.87;46.45;99359.94;4975692;28;20183;-66
2022/06/22 07:45:07;;;;;;;0.60;0.60;;;;;;;22.87;46.11;99358.19;4975438;28;20118;-65
2022/06/22 07:47:51;;;;;;;0.75;0.75;;;;;;;22.94;46.02;99361.31;4975199;28;20055;-65
2022/06/22 07:50:25;;;;;;;0.50;0.50;;;;;;;23.03;45.65;99360.78;4975462;28;20106;-66
2022/06/22 07:52:59;;;;;;;0.50;0.50;;;;;;;23.04;45.22;99354.63;4975249;28;20050;-66
2022/06/22 07:55:36;;;;;;;0.60;0.60;;;;;;;23.29;45.73;99366.19;4975246;28;20051;-65
2022/06/22 07:58:27;;;;;;;0.60;0.60;;;;;;;23.41;44.51;99351.63;4975195;28;20074;-66
2022/06/22 08:01:03;;;;;;;0.65;0.65;;;;;;;23.52;44.88;99346.63;4972622;28;20046;-66
2022/06/22 08:03:37;;;;;;;1.55;1.17;;;;;;;23.50;44.11;99340.66;4955477;29;20093;-66
2022/06/22 08:06:11;;;;;;;0.50;0.50;;;;;;;23.44;43.97;99333.22;4948463;29;20140;-66
2022/06/22 08:08:48;;;;;;;1.20;0.88;;;;;;;23.63;43.98;99328.59;4955056;29;20054;-65
2022/06/22 08:11:22;;;;;;;0.40;0.40;;;;;;;23.65;43.44;99321.53;4954268;29;20055;-66
2022/06/22 08:13:56;;;;;;;0.60;0.60;;;;;;;23.83;43.67;99317.81;4936353;29;20509;-66
2022/06/22 08:16:32;;;;;;;0.60;0.60;;;;;;;23.99;43.68;99321.16;4936460;29;20568;-65
2022/06/22 08:19:03;;;;;;;1.02;0.85;;;;;;;23.96;42.51;99329.19;4936519;29;20521;-66
2022/06/22 08:21:41;;;;;;;0.60;0.60;;;;;;;23.90;40.48;99320.88;4936426;29;20107;-65
2022/06/22 08:24:11;;;;;;;0.55;0.55;;;;;;;24.05;40.10;99316.50;4936282;29;20047;-66
2022/06/22 08:26:42;;;;;;;0.52;0.52;;;;;;;24.12;39.82;99323.03;4936328;29;20051;-66
2022/06/22 08:29:11;;;;;;;0.50;0.50;;;;;;;24.05;39.84;99313.88;4947919;28;20043;-67
2022/06/22 08:31:43;;;;;;;;;;;;;;;24.23;39.35;99323.22;4955192;29;20055;-66
2022/06/22 08:34:37;;;;;;;0.52;0.52;;;;;;;24.46;39.40;99320.00;4955173;29;19937;-67
2022/06/22 08:37:11;;;;;;;0.70;0.70;;;;;;;24.85;39.81;99330.56;4955349;29;20054;-67
2022/06/22 08:39:49;;;;;;;0.55;0.55;;;;;;;25.11;39.40;99321.84;4955319;29;20066;-67
2022/06/22 08:42:32;;;;;;;0.60;0.60;;;;;;;25.17;38.89;99318.81;4955373;29;20051;-66
2022/06/22 08:45:18;;;;;;;0.70;0.70;;;;;;;25.15;38.36;99325.94;4955244;29;20053;-65
2022/06/22 08:48:20;;;;;;;0.60;0.60;;;;;;;25.18;37.99;99325.75;4955491;29;20454;-65
2022/06/22 08:51:12;;;;;;;0.75;0.70;;;;;;;25.36;37.71;99328.06;4955171;29;20106;-66
2022/06/22 08:54:08;;;;;;;0.60;0.60;;;;;;;25.43;37.03;99326.72;4953939;29;20039;-66
2022/06/22 08:56:45;;;;;;;0.50;0.50;;;;;;;25.44;37.06;99325.75;4953580;29;20151;-66
2022/06/22 08:59:34;;;;;;;0.55;0.55;;;;;;;25.39;37.29;99315.63;4955187;29;20039;-66
2022/06/22 09:02:25;;;;;;;0.52;0.50;;;;;;;25.81;37.37;99318.00;4955396;29;20438;-69
2022/06/22 09:05:13;;;;;;;1.77;0.80;;;;;;;26.06;36.22;99319.72;4954727;29;20501;-67
2022/06/22 09:07:57;;;;;;;0.68;0.68;;;;;;;26.67;35.88;99325.88;4954875;29;20063;-67
2022/06/22 09:10:44;;;;;;;0.60;0.60;;;;;;;27.06;35.63;99328.25;4955299;29;20055;-67
2022/06/22 09:13:31;;;;;;;0.50;0.50;;;;;;;26.88;35.74;99329.59;4955154;29;20075;-67
2022/06/22 09:16:09;;;;;;;1.02;0.93;;;;;;;26.63;35.54;99313.97;4954962;29;20058;-67
2022/06/22 09:19:01;;;;;;;0.40;0.40;;;;;;;26.72;36.19;99315.91;4955349;29;20055;-66
2022/06/22 09:21:45;;;;;;;0.77;0.77;;;;;;;26.66;36.00;99318.97;4954362;29;20043;-67
2022/06/22 09:24:22;;;;;;;0.55;0.55;;;;;;;26.91;36.07;99314.50;4948253;29;20114;-66
2022/06/22 09:27:02;;;;;;;0.50;0.50;;;;;;;26.90;33.89;99306.75;4954591;29;20082;-67
2022/06/22 09:29:41;;;;;;;0.43;0.43;;;;;;;26.70;32.47;99312.56;4954388;29;20043;-66
2022/06/22 09:32:29;;;;;;;0.50;0.50;;;;;;;26.76;34.03;99320.00;4954504;29;20051;-66
2022/06/22 09:35:24;;;;;;;0.50;0.50;;;;;;;26.86;33.84;99316.59;4955715;29;20047;-67
2022/06/22 09:38:17;;;;;;;0.40;0.40;;;;;;;27.03;34.04;99312.75;4954736;29;20273;-67
2022/06/22 09:40:55;;;;;;;1.15;1.00;;;;;;;26.86;33.70;99318.38;4955848;28;20051;-67
2022/06/22 09:43:52;;;;;;;0.52;0.52;;;;;;;26.72;34.03;99314.13;4958797;29;20401;-66
2022/06/22 09:46:34;;;;;;;0.50;0.50;;;;;;;26.81;34.89;99317.88;4938906;29;20079;-67
2022/06/22 09:49:21;;;;;;;0.60;0.60;;;;;;;27.03;34.40;99312.75;4939007;29;20055;-66
2022/06/22 09:52:16;;;;;;;0.50;0.50;;;;;;;26.96;31.90;99306.28;4955043;29;20485;-66
2022/06/22 09:58:14;;;;;;;1.13;1.02;;;;;;;26.92;30.76;99310.09;4958309;28;20125;-66
2022/06/22 10:00:50;;;;;;;0.50;0.50;;;;;;;26.87;30.79;99304.34;4957346;29;20485;-66
2022/06/22 10:03:57;;;;;;;0.52;0.52;;;;;;;26.86;30.75;99294.81;4957189;29;20043;-66
2022/06/22 10:06:45;;;;;;;0.63;0.60;;;;;;;26.94;31.38;99292.47;4941805;29;20076;-67
2022/06/22 10:09:30;;;;;;;0.80;0.70;;;;;;;27.09;31.95;99297.41;4958134;29;20572;-66
2022/06/22 10:12:15;;;;;;;0.50;0.50;;;;;;;27.22;31.38;99292.06;4957048;29;20071;-67
2022/06/22 10:15:05;;;;;;;4.53;1.02;;;;;;;27.29;31.63;99290.66;4956620;29;20043;-67
2022/06/22 10:18:02;;;;;;;0.60;0.60;;;;;;;27.39;32.33;99296.91;4957159;28;20493;-67
2022/06/22 10:20:42;;;;;;;0.45;0.45;;;;;;;27.24;32.66;99287.56;4953403;29;20043;-67
2022/06/22 10:23:31;;;;;;;0.57;0.57;;;;;;;26.96;32.00;99270.44;4938345;29;20051;-67
2022/06/22 10:26:14;;;;;;;0.47;0.47;;;;;;;27.07;31.43;99282.72;4947212;29;20110;-68
2022/06/22 10:29:17;;;;;;;0.50;0.50;;;;;;;27.23;31.60;99278.03;4957308;29;20835;-67
2022/06/22 10:32:02;;;;;;;0.47;0.47;;;;;;;27.45;31.32;99283.34;4957306;29;20059;-66
2022/06/22 10:34:42;;;;;;;0.50;0.50;;;;;;;27.50;31.46;99275.94;4956811;29;20077;-69
2022/06/22 10:37:28;;;;;;;0.57;0.57;;;;;;;27.64;31.40;99288.84;4957169;29;20043;-68
2022/06/22 10:46:12;;;;;;;0.47;0.47;;;;;;;27.78;31.42;99280.75;4956473;29;20153;-68
2022/06/22 10:48:58;;;;;;;0.40;0.40;;;;;;;27.93;31.32;99284.78;4954565;29;20047;-68
2022/06/22 10:51:41;;;;;;;0.70;0.70;;;;;;;27.95;30.91;99275.97;4957197;28;20106;-67
2022/06/22 10:54:26;;;;;;;0.50;0.50;;;;;;;27.99;31.44;99283.50;4956950;29;20047;-67
2022/06/22 10:57:18;;;;;;;0.68;0.60;;;;;;;28.01;30.50;99286.00;4957069;29;20043;-67
2022/06/22 11:00:10;;;;;;;0.60;0.60;;;;;;;28.14;32.32;99287.56;4956920;29;20058;-68
2022/06/22 11:03:03;;;;;;;0.73;0.63;;;;;;;28.32;32.79;99293.97;4956925;29;20043;-67
2022/06/22 11:05:46;;;;;;;0.40;0.40;;;;;;;28.38;32.66;99295.28;4956835;29;20059;-66
2022/06/22 11:08:37;;;;;;;0.60;0.60;;;;;;;28.54;32.80;99290.47;4956922;29;20050;-67
2022/06/22 11:11:30;;;;;;;0.60;0.60;;;;;;;28.56;32.39;99289.38;4956852;29;20561;-68
2022/06/22 11:14:23;;;;;;;0.50;0.50;;;;;;;28.47;31.41;99289.28;4956589;29;20043;-66
2022/06/22 11:17:10;;;;;;;0.50;0.50;;;;;;;28.45;30.62;99285.97;4956764;29;20441;-66
2022/06/22 11:20:10;;;;;;;0.60;0.60;;;;;;;28.11;30.16;99285.19;4968659;28;20101;-66
2022/06/22 11:22:42;;;;;;;1.17;0.60;;;;;;;27.93;30.86;99284.78;4962744;28;20039;-66
2022/06/22 11:31:21;;;;;;;0.43;0.43;;;;;;;27.90;31.78;99279.81;4956244;29;20055;-67
2022/06/22 11:34:17;;;;;;;0.52;0.52;;;;;;;28.11;32.63;99271.22;4955915;29;20047;-67
2022/06/22 11:37:03;;;;;;;0.70;0.70;;;;;;;28.30;31.81;99272.25;4944633;29;20055;-67
2022/06/22 11:40:19;;;;;;;1.40;1.13;;;;;;;28.60;32.80;99261.13;4955406;29;20042;-68
2022/06/22 11:43:02;;;;;;;0.55;0.55;;;;;;;28.75;32.02;99262.47;4956311;29;20039;-67
2022/06/22 11:48:46;;;;;;;2.15;1.20;;;;;;;28.54;30.31;99261.56;4956669;29;20043;-67
2022/06/22 11:51:28;;;;;;;0.73;0.70;;;;;;;28.47;30.22;99263.03;4955877;29;20059;-66
2022/06/22 11:54:26;;;;;;;0.93;0.88;;;;;;;28.39;30.30;99252.28;4955955;29;20050;-67
2022/06/22 11:57:09;;;;;;;0.68;0.68;;;;;;;28.40;30.98;99251.34;4956196;29;20134;-66
2022/06/22 11:59:56;;;;;;;0.50;0.50;;;;;;;28.47;30.61;99247.28;4956205;29;20528;-67
2022/06/22 12:02:56;;;;;;;0.47;0.47;;;;;;;28.65;31.24;99243.16;4955661;28;20058;-67
2022/06/22 12:05:48;;;;;;;0.75;0.50;;;;;;;28.83;31.59;99243.47;4950991;29;20039;-67
2022/06/22 12:08:45;;;;;;;0.50;0.50;;;;;;;28.94;31.91;99244.22;4955334;29;20516;-67
2022/06/22 12:11:24;;;;;;;0.50;0.50;;;;;;;29.07;33.45;99231.75;4955538;29;20040;-68
2022/06/22 12:17:02;;;;;;;0.70;0.70;;;;;;;29.04;33.40;99228.53;4936564;29;20134;-67
2022/06/22 12:19:41;;;;;;;0.60;0.60;;;;;;;29.21;32.00;99222.72;4937035;29;20082;-67
2022/06/22 12:22:18;;;;;;;0.50;0.50;;;;;;;29.29;30.54;99222.91;4936287;29;20071;-67
2022/06/22 12:25:03;;;;;;;0.50;0.50;;;;;;;29.27;29.56;99221.38;4936613;29;20051;-66
2022/06/22 12:27:37;;;;;;;0.70;0.70;;;;;;;29.36;29.65;99220.59;4936402;29;20044;-67
2022/06/22 12:30:41;;;;;;;0.50;0.50;;;;;;;29.31;28.82;99230.66;4954529;29;20126;-67
2022/06/22 12:33:14;;;;;;;0.50;0.50;;;;;;;29.43;30.48;99232.25;4954798;29;20047;-66
2022/06/22 12:35:52;;;;;;;0.47;0.47;;;;;;;29.35;28.74;99234.69;4957377;28;20093;-66
2022/06/22 12:38:26;;;;;;;0.50;0.50;;;;;;;29.33;28.10;99231.38;4960966;28;20047;-68
2022/06/22 12:41:24;;;;;;;0.95;0.85;;;;;;;29.20;28.74;99221.88;4960220;28;20045;-67
2022/06/22 12:44:12;;;;;;;0.60;0.60;;;;;;;29.17;29.47;99227.38;4954771;29;20050;-68
2022/06/22 12:46:53;;;;;;;;;;;;;;;29.13;29.11;99215.44;4955542;29;20044;-66
2022/06/22 12:49:40;;;;;;;0.60;0.60;;;;;;;28.70;29.02;99219.97;4955467;29;20297;-66
2022/06/22 12:52:15;;;;;;;0.60;0.60;;;;;;;28.48;29.08;99227.94;4954575;29;20039;-66
2022/06/22 12:54:48;;;;;;;0.93;0.85;;;;;;;28.33;28.94;99213.41;4954982;29;20043;-66
2022/06/22 12:57:21;;;;;;;0.77;0.77;;;;;;;28.37;29.02;99209.59;4955555;29;20454;-66
2022/06/22 12:59:58;;;;;;;0.50;0.50;;;;;;;28.33;29.65;99208.16;4955115;29;20051;-66